createdAt,value
2018-01-27T00:00:39.619Z,59.10
2018-01-27T00:01:40.340Z,58.60
2018-01-27T00:02:40.151Z,59.40
2018-01-27T00:03:40.863Z,65.90
2018-01-27T00:05:02.159Z,65.70
2018-01-27T00:06:02.812Z,68.20
2018-01-27T00:07:01.998Z,61.60
2018-01-27T00:08:03.007Z,63.30
2018-01-27T00:09:02.489Z,66.00
2018-01-27T00:10:01.796Z,66.90
2018-01-27T00:11:02.122Z,64.30
2018-01-27T00:12:02.524Z,62.50
2018-01-27T00:13:02.198Z,70.10
2018-01-27T00:14:02.807Z,68.20
2018-01-27T00:15:03.027Z,60.80
2018-01-27T00:16:02.361Z,67.90
2018-01-27T00:17:02.285Z,74.60
2018-01-27T00:18:02.594Z,77.70
2018-01-27T00:19:01.988Z,80.00
2018-01-27T00:20:02.681Z,76.50
2018-01-27T00:21:23.507Z,72.70
2018-01-27T00:22:23.693Z,70.80
2018-01-27T00:23:24.120Z,77.80
2018-01-27T00:24:23.412Z,62.20
2018-01-27T00:25:23.654Z,66.70
2018-01-27T00:26:45.677Z,65.80
2018-01-27T00:27:47.710Z,70.90
2018-01-27T00:28:46.475Z,80.90
2018-01-27T00:30:07.371Z,77.10
2018-01-27T00:31:07.654Z,79.80
2018-01-27T00:32:29.268Z,85.10
2018-01-27T00:33:30.081Z,81.60
2018-01-27T00:34:29.531Z,88.90
2018-01-27T00:35:30.348Z,99.20
2018-01-27T00:36:29.966Z,111.00
2018-01-27T00:37:30.714Z,109.40
2018-01-27T00:38:29.962Z,131.20
2018-01-27T00:39:29.463Z,128.50
2018-01-27T00:40:30.417Z,130.70
2018-01-27T00:41:30.209Z,136.50
2018-01-27T00:42:29.724Z,137.60
2018-01-27T00:43:30.516Z,146.30
2018-01-27T00:44:30.221Z,129.30
2018-01-27T00:45:29.966Z,152.20
2018-01-27T00:46:30.232Z,160.80
2018-01-27T00:47:29.576Z,155.70
2018-01-27T00:48:30.252Z,156.80
2018-01-27T00:49:29.568Z,162.50
2018-01-27T00:50:29.901Z,155.00
2018-01-27T00:51:30.536Z,168.30
2018-01-27T00:52:29.820Z,158.60
2018-01-27T00:53:30.315Z,167.30
2018-01-27T00:54:30.250Z,167.80
2018-01-27T00:55:29.721Z,187.50
2018-01-27T00:56:30.007Z,190.20
2018-01-27T00:57:29.714Z,198.60
2018-01-27T00:58:30.473Z,183.90
2018-01-27T00:59:30.072Z,172.90
2018-01-27T01:00:29.776Z,189.70
2018-01-27T01:01:30.625Z,183.90
2018-01-27T01:02:29.921Z,204.30
2018-01-27T01:03:30.067Z,212.80
2018-01-27T01:04:30.367Z,205.00
2018-01-27T01:05:30.172Z,215.70
2018-01-27T01:06:29.894Z,199.60
2018-01-27T01:07:30.608Z,207.30
2018-01-27T01:08:29.743Z,225.00
2018-01-27T01:09:30.419Z,222.60
2018-01-27T01:10:30.217Z,242.80
2018-01-27T01:11:29.657Z,214.30
2018-01-27T01:12:30.456Z,233.90
2018-01-27T01:13:29.604Z,210.70
2018-01-27T01:14:50.914Z,215.40
2018-01-27T01:15:51.598Z,208.40
2018-01-27T01:16:51.261Z,224.70
2018-01-27T01:17:51.687Z,211.90
2018-01-27T01:19:33.669Z,237.40
2018-01-27T01:20:34.001Z,228.10
2018-01-27T01:21:34.173Z,231.00
2018-01-27T01:22:34.533Z,238.20
2018-01-27T01:23:33.657Z,257.20
2018-01-27T01:24:55.397Z,248.70
2018-01-27T01:25:56.019Z,245.90
2018-01-27T01:26:56.559Z,281.80
2018-01-27T01:27:56.036Z,275.40
2018-01-27T01:28:55.929Z,252.90
2018-01-27T01:30:17.665Z,246.10
2018-01-27T01:31:18.030Z,232.90
2018-01-27T01:32:18.821Z,214.80
2018-01-27T01:33:18.718Z,225.80
2018-01-27T01:34:18.002Z,224.60
2018-01-27T01:35:18.800Z,229.40
2018-01-27T01:36:18.628Z,215.90
2018-01-27T01:37:18.278Z,214.70
2018-01-27T01:38:40.165Z,215.50
2018-01-27T01:39:40.744Z,203.00
2018-01-27T01:40:40.448Z,195.10
2018-01-27T01:41:41.126Z,193.10
2018-01-27T01:42:40.399Z,188.40
2018-01-27T01:43:40.692Z,172.50
2018-01-27T01:44:42.078Z,166.10
2018-01-27T01:45:40.872Z,174.10
2018-01-27T01:46:40.564Z,166.30
2018-01-27T01:47:39.981Z,160.50
2018-01-27T01:48:40.361Z,136.00
2018-01-27T01:49:40.294Z,135.30
2018-01-27T01:50:40.846Z,134.70
2018-01-27T01:51:40.573Z,127.30
2018-01-27T01:52:39.910Z,127.30
2018-01-27T01:53:40.267Z,125.10
2018-01-27T01:54:41.139Z,126.30
2018-01-27T01:55:40.811Z,148.30
2018-01-27T01:56:40.302Z,146.10
2018-01-27T01:57:41.039Z,138.20
2018-01-27T01:58:40.320Z,132.50
2018-01-27T01:59:41.114Z,144.50
2018-01-27T02:00:41.109Z,140.70
2018-01-27T02:01:40.475Z,145.00
2018-01-27T02:02:39.797Z,139.40
2018-01-27T02:04:01.860Z,128.70
2018-01-27T02:05:02.460Z,131.90
2018-01-27T02:06:02.321Z,121.80
2018-01-27T02:07:03.100Z,117.60
2018-01-27T02:08:02.644Z,118.20
2018-01-27T02:09:02.193Z,112.60
2018-01-27T02:10:02.550Z,113.40
2018-01-27T02:11:02.264Z,125.80
2018-01-27T02:12:02.663Z,120.40
2018-01-27T02:13:02.391Z,108.90
2018-01-27T02:14:02.655Z,114.50
2018-01-27T02:15:02.383Z,108.20
2018-01-27T02:16:02.628Z,116.40
2018-01-27T02:17:02.433Z,105.30
2018-01-27T02:18:01.927Z,103.60
2018-01-27T02:19:02.322Z,105.20
2018-01-27T02:20:03.045Z,109.30
2018-01-27T02:21:02.618Z,97.30
2018-01-27T02:22:02.417Z,97.80
2018-01-27T02:23:02.877Z,99.60
2018-01-27T02:24:02.414Z,93.30
2018-01-27T02:25:03.134Z,96.60
2018-01-27T02:26:02.561Z,93.10
2018-01-27T02:27:02.296Z,83.00
2018-01-27T02:28:02.603Z,84.60
2018-01-27T02:29:02.067Z,83.00
2018-01-27T02:30:23.708Z,85.40
2018-01-27T02:31:24.551Z,85.60
2018-01-27T02:32:23.784Z,84.50
2018-01-27T02:33:23.883Z,77.90
2018-01-27T02:34:24.282Z,71.80
2018-01-27T02:35:23.922Z,78.20
2018-01-27T02:36:45.474Z,75.40
2018-01-27T02:37:45.939Z,74.00
2018-01-27T02:38:46.194Z,77.70
2018-01-27T02:40:07.102Z,72.00
2018-01-27T02:41:07.441Z,74.10
2018-01-27T02:42:08.048Z,68.80
2018-01-27T02:43:07.693Z,68.00
2018-01-27T02:44:07.965Z,67.00
2018-01-27T02:45:07.467Z,65.90
2018-01-27T02:46:07.821Z,67.80
2018-01-27T02:47:07.989Z,65.40
2018-01-27T02:48:07.674Z,66.90
2018-01-27T02:49:07.910Z,66.40
2018-01-27T02:50:28.563Z,70.50
2018-01-27T02:51:49.833Z,65.30
2018-01-27T02:52:50.428Z,59.40
2018-01-27T02:53:50.766Z,64.80
2018-01-27T02:54:50.226Z,61.00
2018-01-27T02:55:50.859Z,64.50
2018-01-27T02:56:50.298Z,64.00
2018-01-27T02:57:50.714Z,59.80
2018-01-27T02:58:50.817Z,67.60
2018-01-27T02:59:50.098Z,64.20
2018-01-27T03:00:50.408Z,62.20
2018-01-27T03:01:50.811Z,71.20
2018-01-27T03:02:50.511Z,59.40
2018-01-27T03:03:50.618Z,60.50
2018-01-27T03:04:50.100Z,60.60
2018-01-27T03:05:50.259Z,57.90
2018-01-27T03:06:50.940Z,63.10
2018-01-27T03:07:50.238Z,67.40
2018-01-27T03:08:50.895Z,58.70
2018-01-27T03:09:50.510Z,59.20
2018-01-27T03:10:50.385Z,64.50
2018-01-27T03:11:50.943Z,59.60
2018-01-27T03:12:50.526Z,65.70
2018-01-27T03:13:50.670Z,65.70
2018-01-27T03:14:50.620Z,70.40
2018-01-27T03:16:11.964Z,64.80
2018-01-27T03:17:34.897Z,61.40
2018-01-27T03:18:34.544Z,65.50
2018-01-27T03:19:33.710Z,62.70
2018-01-27T03:20:34.162Z,73.30
2018-01-27T03:21:34.463Z,61.80
2018-01-27T03:22:34.931Z,63.50
2018-01-27T03:23:34.684Z,65.20
2018-01-27T03:24:34.018Z,65.20
2018-01-27T03:25:34.437Z,67.50
2018-01-27T03:26:34.568Z,60.40
2018-01-27T03:27:34.648Z,70.40
2018-01-27T03:28:34.275Z,61.40
2018-01-27T03:29:34.520Z,67.70
2018-01-27T03:30:35.050Z,64.00
2018-01-27T03:31:34.753Z,71.10
2018-01-27T03:32:34.383Z,59.40
2018-01-27T03:33:33.780Z,63.60
2018-01-27T03:34:34.521Z,68.80
2018-01-27T03:35:34.734Z,67.80
2018-01-27T03:36:34.459Z,72.40
2018-01-27T03:37:34.245Z,68.90
2018-01-27T03:38:34.921Z,69.80
2018-01-27T03:39:35.336Z,65.40
2018-01-27T03:40:34.447Z,70.20
2018-01-27T03:41:33.640Z,66.10
2018-01-27T03:42:33.920Z,68.10
2018-01-27T03:43:34.281Z,64.90
2018-01-27T03:44:35.518Z,72.90
2018-01-27T03:45:33.846Z,58.50
2018-01-27T03:46:34.034Z,66.10
2018-01-27T03:47:34.917Z,66.60
2018-01-27T03:48:34.475Z,67.00
2018-01-27T03:49:34.590Z,64.80
2018-01-27T03:50:34.270Z,64.50
2018-01-27T03:51:34.651Z,65.60
2018-01-27T03:52:33.911Z,67.00
2018-01-27T03:53:55.048Z,65.00
2018-01-27T03:55:17.244Z,63.40
2018-01-27T03:56:22.342Z,66.10
2018-01-27T03:57:18.238Z,68.30
2018-01-27T03:58:17.482Z,63.30
2018-01-27T03:59:16.840Z,66.50
2018-01-27T04:00:17.407Z,68.30
2018-01-27T04:01:17.995Z,69.80
2018-01-27T04:02:17.302Z,65.70
2018-01-27T04:03:18.031Z,67.70
2018-01-27T04:04:17.229Z,67.00
2018-01-27T04:05:18.007Z,66.00
2018-01-27T04:06:17.057Z,71.50
2018-01-27T04:07:17.546Z,64.90
2018-01-27T04:08:38.178Z,66.30
2018-01-27T04:09:38.320Z,75.70
2018-01-27T04:10:38.714Z,66.60
2018-01-27T04:11:39.412Z,65.20
2018-01-27T04:12:38.740Z,68.90
2018-01-27T04:13:39.127Z,64.90
2018-01-27T04:14:38.369Z,73.50
2018-01-27T04:15:38.665Z,67.20
2018-01-27T04:16:39.291Z,79.40
2018-01-27T04:17:39.142Z,74.00
2018-01-27T04:18:38.368Z,70.00
2018-01-27T04:20:00.570Z,79.20
2018-01-27T04:21:00.752Z,75.00
2018-01-27T04:22:01.004Z,67.70
2018-01-27T04:23:01.755Z,74.20
2018-01-27T04:24:22.334Z,74.90
2018-01-27T04:25:22.978Z,68.30
2018-01-27T04:26:22.627Z,60.60
2018-01-27T04:27:23.140Z,65.70
2018-01-27T04:28:22.660Z,64.50
2018-01-27T04:29:22.197Z,69.20
2018-01-27T04:30:22.557Z,69.60
2018-01-27T04:31:23.136Z,67.80
2018-01-27T04:32:22.395Z,68.30
2018-01-27T04:33:22.607Z,64.30
2018-01-27T04:34:22.828Z,62.20
2018-01-27T04:35:22.134Z,73.50
2018-01-27T04:36:22.713Z,71.90
2018-01-27T04:37:22.173Z,67.50
2018-01-27T04:38:22.843Z,70.60
2018-01-27T04:39:22.484Z,76.00
2018-01-27T04:40:22.746Z,67.20
2018-01-27T04:41:23.240Z,67.30
2018-01-27T04:42:22.893Z,66.50
2018-01-27T04:43:22.149Z,70.20
2018-01-27T04:44:22.225Z,73.50
2018-01-27T04:45:22.922Z,75.40
2018-01-27T04:46:22.092Z,68.60
2018-01-27T04:47:22.353Z,67.60
2018-01-27T04:48:22.760Z,72.60
2018-01-27T04:49:22.019Z,70.70
2018-01-27T04:50:22.200Z,74.90
2018-01-27T04:51:22.946Z,73.60
2018-01-27T04:52:22.775Z,71.60
2018-01-27T04:53:23.290Z,72.20
2018-01-27T04:54:22.639Z,71.50
2018-01-27T04:55:22.975Z,71.50
2018-01-27T04:56:22.790Z,74.00
2018-01-27T04:57:22.103Z,73.20
2018-01-27T04:58:22.339Z,70.80
2018-01-27T04:59:22.606Z,71.50
2018-01-27T05:00:23.074Z,82.50
2018-01-27T05:01:22.163Z,78.00
2018-01-27T05:02:22.729Z,67.30
2018-01-27T05:03:22.533Z,75.10
2018-01-27T05:04:22.759Z,76.10
2018-01-27T05:05:22.134Z,81.00
2018-01-27T05:06:22.288Z,71.80
2018-01-27T05:07:22.541Z,84.90
2018-01-27T05:08:23.104Z,78.80
2018-01-27T05:09:22.850Z,71.30
2018-01-27T05:10:22.617Z,73.20
2018-01-27T05:11:23.410Z,72.80
2018-01-27T05:12:22.718Z,72.80
2018-01-27T05:13:23.280Z,76.00
2018-01-27T05:14:22.553Z,82.40
2018-01-27T05:15:22.945Z,84.40
2018-01-27T05:16:22.260Z,82.70
2018-01-27T05:17:22.625Z,77.30
2018-01-27T05:18:22.856Z,83.90
2018-01-27T05:19:22.455Z,82.40
2018-01-27T05:20:23.000Z,86.90
2018-01-27T05:21:22.226Z,88.00
2018-01-27T05:22:22.974Z,82.90
2018-01-27T05:23:22.374Z,84.50
2018-01-27T05:24:22.676Z,83.80
2018-01-27T05:25:22.006Z,93.10
2018-01-27T05:26:22.594Z,91.60
2018-01-27T05:27:22.970Z,95.60
2018-01-27T05:28:22.540Z,106.90
2018-01-27T05:29:23.001Z,98.40
2018-01-27T05:30:44.049Z,104.20
2018-01-27T05:31:44.610Z,102.70
2018-01-27T05:32:44.280Z,106.60
2018-01-27T05:33:43.607Z,102.40
2018-01-27T05:34:43.663Z,101.90
2018-01-27T05:35:44.285Z,106.90
2018-01-27T05:36:44.975Z,107.80
2018-01-27T05:38:05.651Z,113.50
2018-01-27T05:39:05.867Z,109.30
2018-01-27T05:40:29.102Z,116.50
2018-01-27T05:41:29.310Z,102.30
2018-01-27T05:42:29.648Z,115.10
2018-01-27T05:43:29.460Z,115.10
2018-01-27T05:44:29.293Z,122.20
2018-01-27T05:45:55.417Z,114.90
2018-01-27T05:46:52.054Z,118.10
2018-01-27T05:48:12.812Z,117.50
2018-01-27T05:49:13.092Z,118.00
2018-01-27T05:50:13.666Z,109.40
2018-01-27T05:51:13.933Z,105.60
2018-01-27T05:52:13.387Z,117.00
2018-01-27T05:53:16.246Z,112.10
2018-01-27T05:54:13.991Z,116.00
2018-01-27T05:55:13.296Z,107.00
2018-01-27T05:56:13.859Z,115.90
2018-01-27T05:57:13.097Z,113.70
2018-01-27T05:58:13.872Z,113.70
2018-01-27T05:59:34.705Z,104.20
2018-01-27T06:00:34.983Z,108.70
2018-01-27T06:01:37.978Z,102.70
2018-01-27T06:02:35.628Z,102.70
2018-01-27T06:03:35.051Z,100.00
2018-01-27T06:04:34.311Z,93.40
2018-01-27T06:05:34.455Z,102.10
2018-01-27T06:06:56.438Z,102.10
2018-01-27T06:07:57.314Z,95.90
2018-01-27T06:08:57.043Z,94.20
2018-01-27T06:09:56.696Z,101.80
2018-01-27T06:10:57.060Z,106.20
2018-01-27T06:11:56.494Z,99.20
2018-01-27T06:12:56.885Z,104.00
2018-01-27T06:13:56.975Z,107.80
2018-01-27T06:14:56.372Z,110.10
2018-01-27T06:15:56.722Z,112.20
2018-01-27T06:16:57.581Z,116.50
2018-01-27T06:18:18.650Z,112.20
2018-01-27T06:19:40.408Z,116.50
2018-01-27T06:20:41.219Z,120.40
2018-01-27T06:21:40.621Z,124.70
2018-01-27T06:22:40.441Z,126.10
2018-01-27T06:23:42.166Z,129.70
2018-01-27T06:24:40.554Z,136.40
2018-01-27T06:25:41.356Z,141.90
2018-01-27T06:26:41.317Z,133.50
2018-01-27T06:27:40.929Z,129.30
2018-01-27T06:28:40.127Z,133.00
2018-01-27T06:29:40.594Z,134.10
2018-01-27T06:30:40.572Z,124.60
2018-01-27T06:31:41.397Z,137.90
2018-01-27T06:32:40.653Z,138.60
2018-01-27T06:33:40.929Z,139.70
2018-01-27T06:34:40.184Z,132.60
2018-01-27T06:35:40.646Z,136.70
2018-01-27T06:36:41.020Z,130.00
2018-01-27T06:38:02.253Z,145.30
2018-01-27T06:39:02.522Z,127.80
2018-01-27T06:40:23.470Z,137.00
2018-01-27T06:41:23.755Z,133.70
2018-01-27T06:42:24.444Z,129.30
2018-01-27T06:43:44.628Z,135.40
2018-01-27T06:44:44.897Z,132.70
2018-01-27T06:45:45.407Z,135.10
2018-01-27T06:46:45.179Z,138.10
2018-01-27T06:47:45.422Z,136.80
2018-01-27T06:48:45.809Z,136.40
2018-01-27T06:49:45.284Z,143.70
2018-01-27T06:50:45.862Z,141.30
2018-01-27T06:51:45.612Z,129.00
2018-01-27T06:52:45.108Z,131.10
2018-01-27T06:53:45.707Z,129.20
2018-01-27T06:54:45.134Z,134.10
2018-01-27T06:55:45.884Z,130.70
2018-01-27T06:56:45.581Z,136.40
2018-01-27T06:57:45.244Z,132.50
2018-01-27T06:58:45.697Z,129.10
2018-01-27T07:00:29.109Z,122.90
2018-01-27T07:01:29.743Z,126.70
2018-01-27T07:02:29.332Z,137.50
2018-01-27T07:03:30.107Z,132.70
2018-01-27T07:04:29.923Z,124.50
2018-01-27T07:05:29.403Z,133.40
2018-01-27T07:06:29.829Z,129.40
2018-01-27T07:07:29.357Z,133.60
2018-01-27T07:08:28.778Z,130.20
2018-01-27T07:09:29.536Z,125.50
2018-01-27T07:10:29.240Z,123.60
2018-01-27T07:11:29.931Z,122.80
2018-01-27T07:12:29.445Z,123.10
2018-01-27T07:13:29.236Z,122.70
2018-01-27T07:14:29.533Z,121.70
2018-01-27T07:15:29.145Z,117.00
2018-01-27T07:16:29.586Z,132.10
2018-01-27T07:17:29.337Z,129.20
2018-01-27T07:18:28.785Z,112.60
2018-01-27T07:19:29.204Z,115.40
2018-01-27T07:20:30.411Z,117.50
2018-01-27T07:21:53.711Z,120.70
2018-01-27T07:22:52.171Z,113.30
2018-01-27T07:23:51.909Z,116.20
2018-01-27T07:24:51.959Z,114.70
2018-01-27T07:25:51.922Z,114.20
2018-01-27T07:26:51.865Z,114.10
2018-01-27T07:27:51.639Z,124.00
2018-01-27T07:28:52.542Z,124.50
2018-01-27T07:29:52.108Z,126.90
2018-01-27T07:30:52.160Z,120.90
2018-01-27T07:31:52.156Z,117.60
2018-01-27T07:33:35.157Z,115.60
2018-01-27T07:34:36.112Z,113.80
2018-01-27T07:35:35.647Z,109.30
2018-01-27T07:36:35.227Z,110.70
2018-01-27T07:37:35.698Z,111.20
2018-01-27T07:38:35.094Z,107.60
2018-01-27T07:39:35.874Z,114.60
2018-01-27T07:40:35.459Z,106.80
2018-01-27T07:41:36.350Z,129.20
2018-01-27T07:42:36.177Z,118.60
2018-01-27T07:43:35.723Z,116.50
2018-01-27T07:44:57.581Z,121.20
2018-01-27T07:45:57.411Z,114.50
2018-01-27T07:46:58.359Z,119.00
2018-01-27T07:47:58.130Z,126.30
2018-01-27T07:48:57.899Z,122.60
2018-01-27T07:49:58.010Z,125.20
2018-01-27T07:50:57.890Z,117.00
2018-01-27T07:51:57.431Z,118.60
2018-01-27T07:52:57.888Z,117.30
2018-01-27T07:53:57.539Z,114.50
2018-01-27T07:54:57.614Z,113.80
2018-01-27T07:56:18.965Z,115.90
2018-01-27T07:57:21.048Z,99.70
2018-01-27T07:58:20.028Z,114.10
2018-01-27T08:00:03.169Z,89.40
2018-01-27T08:01:03.571Z,98.50
2018-01-27T08:02:02.830Z,97.30
2018-01-27T08:03:03.697Z,96.80
2018-01-27T08:04:24.392Z,99.50
2018-01-27T08:05:46.678Z,99.30
2018-01-27T08:07:08.834Z,89.30
2018-01-27T08:08:09.618Z,89.60
2018-01-27T08:09:31.158Z,92.50
2018-01-27T08:10:31.431Z,93.40
2018-01-27T08:11:30.845Z,94.30
2018-01-27T08:12:31.209Z,99.40
2018-01-27T08:13:31.552Z,91.40
2018-01-27T08:14:31.036Z,92.40
2018-01-27T08:15:31.590Z,93.00
2018-01-27T08:16:31.132Z,87.30
2018-01-27T08:17:31.707Z,96.80
2018-01-27T08:18:53.148Z,94.50
2018-01-27T08:19:54.216Z,97.10
2018-01-27T08:20:54.032Z,88.50
2018-01-27T08:21:53.881Z,99.80
2018-01-27T08:22:53.739Z,92.40
2018-01-27T08:23:54.143Z,88.80
2018-01-27T08:24:54.964Z,88.20
2018-01-27T08:25:53.873Z,94.40
2018-01-27T08:26:53.799Z,100.10
2018-01-27T08:27:53.724Z,97.40
2018-01-27T08:28:53.201Z,94.50
2018-01-27T08:29:54.155Z,97.20
2018-01-27T08:30:54.087Z,93.30
2018-01-27T08:31:55.014Z,191.20
2018-01-27T08:32:53.582Z,127.30
2018-01-27T08:33:54.358Z,108.30
2018-01-27T08:34:54.323Z,91.30
2018-01-27T08:35:54.411Z,92.00
2018-01-27T08:36:53.866Z,92.30
2018-01-27T08:37:53.195Z,101.40
2018-01-27T08:38:53.844Z,91.10
2018-01-27T08:39:53.195Z,93.70
2018-01-27T08:40:53.689Z,89.70
2018-01-27T08:41:54.110Z,98.00
2018-01-27T08:42:54.148Z,107.30
2018-01-27T08:43:54.306Z,92.60
2018-01-27T08:44:53.930Z,89.50
2018-01-27T08:45:53.156Z,81.90
2018-01-27T08:46:53.462Z,84.90
2018-01-27T08:47:54.079Z,89.70
2018-01-27T08:48:53.597Z,92.90
2018-01-27T08:49:54.247Z,86.80
2018-01-27T08:50:53.688Z,86.90
2018-01-27T08:51:53.986Z,85.70
2018-01-27T08:52:53.577Z,82.20
2018-01-27T08:53:54.062Z,89.20
2018-01-27T08:54:54.087Z,84.50
2018-01-27T08:55:53.426Z,88.50
2018-01-27T08:57:15.667Z,78.70
2018-01-27T08:58:16.048Z,81.50
2018-01-27T08:59:16.644Z,84.00
2018-01-27T09:00:16.118Z,80.00
2018-01-27T09:01:16.489Z,82.80
2018-01-27T09:02:16.183Z,80.10
2018-01-27T09:03:16.787Z,91.00
2018-01-27T09:04:16.397Z,85.40
2018-01-27T09:05:16.266Z,88.70
2018-01-27T09:06:17.187Z,87.70
2018-01-27T09:07:16.587Z,82.50
2018-01-27T09:08:37.697Z,83.20
2018-01-27T09:09:38.517Z,83.00
2018-01-27T09:10:38.555Z,80.60
2018-01-27T09:11:38.065Z,71.40
2018-01-27T09:12:39.003Z,86.70
2018-01-27T09:13:38.261Z,90.10
2018-01-27T09:14:39.086Z,78.00
2018-01-27T09:15:38.813Z,81.50
2018-01-27T09:16:38.526Z,79.10
2018-01-27T09:17:37.932Z,78.00
2018-01-27T09:18:38.696Z,77.10
2018-01-27T09:19:38.732Z,78.30
2018-01-27T09:20:38.705Z,84.60
2018-01-27T09:21:38.466Z,80.00
2018-01-27T09:22:38.291Z,80.20
2018-01-27T09:23:38.168Z,88.90
2018-01-27T09:24:39.120Z,76.40
2018-01-27T09:25:38.773Z,75.60
2018-01-27T09:26:38.412Z,78.90
2018-01-27T09:27:38.120Z,78.20
2018-01-27T09:28:38.963Z,80.50
2018-01-27T09:29:38.849Z,85.70
2018-01-27T09:30:38.388Z,74.50
2018-01-27T09:31:37.967Z,73.20
2018-01-27T09:32:38.832Z,79.40
2018-01-27T09:33:38.839Z,76.60
2018-01-27T09:34:38.824Z,79.80
2018-01-27T09:35:38.312Z,78.80
2018-01-27T09:36:37.846Z,77.10
2018-01-27T09:37:38.332Z,75.80
2018-01-27T09:38:37.969Z,80.00
2018-01-27T09:39:39.478Z,80.30
2018-01-27T09:40:38.263Z,78.30
2018-01-27T09:41:37.952Z,66.80
2018-01-27T09:42:38.502Z,76.80
2018-01-27T09:43:37.907Z,78.30
2018-01-27T09:44:38.847Z,78.70
2018-01-27T09:45:38.740Z,85.20
2018-01-27T09:46:38.811Z,75.20
2018-01-27T09:47:38.548Z,67.30
2018-01-27T09:48:59.891Z,70.90
2018-01-27T09:50:00.410Z,77.80
2018-01-27T09:51:00.289Z,67.20
2018-01-27T09:52:00.196Z,62.60
2018-01-27T09:52:59.762Z,61.30
2018-01-27T09:54:21.890Z,63.10
2018-01-27T09:55:22.538Z,63.30
2018-01-27T09:56:22.477Z,65.20
2018-01-27T09:57:22.094Z,62.50
2018-01-27T09:58:22.938Z,57.10
2018-01-27T09:59:22.522Z,62.00
2018-01-27T10:00:22.205Z,57.10
2018-01-27T10:01:21.652Z,60.30
2018-01-27T10:02:22.631Z,58.30
2018-01-27T10:03:22.440Z,60.20
2018-01-27T10:04:22.145Z,60.30
2018-01-27T10:05:21.580Z,64.80
2018-01-27T10:06:22.082Z,59.40
2018-01-27T10:07:21.930Z,53.80
2018-01-27T10:08:22.492Z,51.80
2018-01-27T10:09:22.038Z,59.80
2018-01-27T10:10:22.162Z,53.10
2018-01-27T10:11:21.804Z,51.90
2018-01-27T10:12:22.189Z,54.10
2018-01-27T10:13:21.525Z,49.00
2018-01-27T10:14:22.347Z,55.20
2018-01-27T10:15:21.977Z,53.30
2018-01-27T10:16:22.918Z,54.50
2018-01-27T10:17:23.081Z,57.90
2018-01-27T10:18:21.637Z,55.00
2018-01-27T10:19:22.641Z,59.20
2018-01-27T10:20:22.636Z,55.40
2018-01-27T10:21:22.391Z,62.70
2018-01-27T10:22:21.832Z,61.50
2018-01-27T10:23:43.780Z,54.50
2018-01-27T10:25:06.096Z,60.20
2018-01-27T10:26:06.993Z,58.70
2018-01-27T10:27:06.522Z,60.70
2018-01-27T10:28:06.341Z,64.90
2018-01-27T10:29:06.401Z,59.30
2018-01-27T10:30:07.029Z,65.80
2018-01-27T10:31:06.894Z,67.10
2018-01-27T10:32:06.852Z,72.50
2018-01-27T10:33:06.824Z,58.40
2018-01-27T10:34:06.492Z,57.30
2018-01-27T10:35:06.463Z,65.20
2018-01-27T10:36:06.017Z,59.00
2018-01-27T10:37:06.315Z,58.30
2018-01-27T10:38:05.549Z,57.10
2018-01-27T10:39:27.555Z,59.20
2018-01-27T10:40:48.334Z,55.60
2018-01-27T10:41:49.224Z,53.40
2018-01-27T10:42:48.925Z,54.10
2018-01-27T10:43:48.446Z,57.70
2018-01-27T10:44:49.249Z,60.40
2018-01-27T10:45:49.250Z,57.90
2018-01-27T10:46:49.427Z,60.50
2018-01-27T10:47:49.071Z,61.10
2018-01-27T10:48:48.666Z,58.30
2018-01-27T10:49:48.546Z,61.50
2018-01-27T10:50:48.180Z,57.80
2018-01-27T10:51:49.258Z,45.00
2018-01-27T10:52:48.586Z,45.70
2018-01-27T10:53:49.102Z,46.80
2018-01-27T10:54:48.726Z,47.20
2018-01-27T10:55:50.245Z,48.40
2018-01-27T10:56:49.186Z,45.20
2018-01-27T10:57:48.769Z,43.70
2018-01-27T10:58:48.292Z,46.50
2018-01-27T10:59:48.897Z,52.80
2018-01-27T11:00:49.117Z,44.30
2018-01-27T11:02:09.835Z,51.20
2018-01-27T11:03:11.062Z,44.90
2018-01-27T11:04:11.034Z,45.00
2018-01-27T11:05:33.066Z,50.50
2018-01-27T11:06:34.080Z,41.70
2018-01-27T11:07:34.204Z,47.80
2018-01-27T11:08:55.706Z,40.50
2018-01-27T11:09:56.369Z,39.60
2018-01-27T11:11:17.333Z,39.90
2018-01-27T11:12:18.300Z,45.60
2018-01-27T11:13:17.658Z,40.30
2018-01-27T11:14:18.280Z,40.30
2018-01-27T11:15:18.228Z,37.20
2018-01-27T11:16:18.218Z,33.30
2018-01-27T11:17:17.558Z,36.00
2018-01-27T11:18:18.324Z,33.00
2018-01-27T11:19:39.763Z,35.50
2018-01-27T11:20:40.792Z,31.20
2018-01-27T11:22:02.100Z,32.80
2018-01-27T11:23:02.964Z,28.10
2018-01-27T11:24:03.997Z,27.30
2018-01-27T11:25:24.194Z,30.00
2018-01-27T11:26:24.574Z,26.50
2018-01-27T11:27:47.067Z,24.70
2018-01-27T11:28:48.245Z,21.70
2018-01-27T11:29:46.709Z,18.90
2018-01-27T11:30:47.354Z,22.70
2018-01-27T11:31:46.848Z,22.90
2018-01-27T11:32:47.318Z,21.90
2018-01-27T11:33:47.167Z,18.70
2018-01-27T11:34:46.775Z,21.10
2018-01-27T11:35:47.555Z,19.60
2018-01-27T11:36:48.432Z,23.70
2018-01-27T11:37:47.739Z,23.10
2018-01-27T11:38:47.386Z,22.80
2018-01-27T11:39:47.143Z,21.70
2018-01-27T11:40:46.584Z,21.20
2018-01-27T11:41:47.149Z,20.80
2018-01-27T11:42:47.218Z,19.60
2018-01-27T11:43:47.344Z,21.40
2018-01-27T11:44:46.947Z,23.30
2018-01-27T11:45:46.627Z,21.80
2018-01-27T11:46:47.147Z,21.70
2018-01-27T11:47:47.138Z,22.60
2018-01-27T11:48:46.708Z,22.90
2018-01-27T11:49:47.453Z,23.80
2018-01-27T11:51:09.139Z,26.30
2018-01-27T11:52:08.496Z,23.20
2018-01-27T11:53:09.424Z,23.80
2018-01-27T11:54:09.070Z,26.20
2018-01-27T11:55:08.726Z,24.30
2018-01-27T11:56:09.253Z,26.20
2018-01-27T11:57:08.942Z,25.40
2018-01-27T11:58:09.628Z,27.10
2018-01-27T11:59:09.587Z,22.70
2018-01-27T12:00:30.410Z,25.80
2018-01-27T12:01:52.248Z,24.80
2018-01-27T12:02:53.042Z,25.10
2018-01-27T12:03:53.334Z,22.80
2018-01-27T12:04:52.650Z,22.50
2018-01-27T12:06:14.305Z,22.70
2018-01-27T12:07:14.007Z,22.60
2018-01-27T12:08:15.042Z,26.30
2018-01-27T12:09:14.870Z,25.60
2018-01-27T12:10:37.616Z,24.50
2018-01-27T12:11:39.156Z,24.60
2018-01-27T12:12:37.815Z,25.10
2018-01-27T12:13:38.987Z,30.10
2018-01-27T12:14:38.009Z,22.30
2018-01-27T12:15:38.942Z,25.20
2018-01-27T12:17:00.282Z,26.10
2018-01-27T12:18:00.900Z,24.00
2018-01-27T12:19:01.143Z,24.30
2018-01-27T12:20:22.559Z,23.90
2018-01-27T12:21:23.121Z,24.10
2018-01-27T12:22:43.986Z,21.10
2018-01-27T12:23:44.984Z,25.00
2018-01-27T12:24:44.394Z,27.20
2018-01-27T12:25:44.534Z,24.10
2018-01-27T12:26:44.024Z,19.50
2018-01-27T12:27:45.117Z,24.10
2018-01-27T12:28:44.616Z,28.30
2018-01-27T12:29:44.517Z,26.30
2018-01-27T12:30:44.541Z,26.30
2018-01-27T12:31:45.059Z,22.50
2018-01-27T12:32:45.092Z,25.30
2018-01-27T12:33:46.342Z,26.90
2018-01-27T12:34:43.857Z,27.50
2018-01-27T12:35:44.573Z,23.60
2018-01-27T12:37:06.772Z,22.50
2018-01-27T12:38:06.580Z,26.70
2018-01-27T12:39:51.306Z,29.40
2018-01-27T12:40:52.040Z,21.20
2018-01-27T12:41:51.624Z,22.70
2018-01-27T12:43:12.673Z,24.60
2018-01-27T12:44:13.017Z,24.90
2018-01-27T12:45:13.485Z,21.80
2018-01-27T12:46:34.692Z,24.60
2018-01-27T12:47:35.538Z,22.50
2018-01-27T12:48:35.013Z,23.90
2018-01-27T12:49:35.021Z,25.50
2018-01-27T12:50:35.028Z,24.20
2018-01-27T12:51:34.980Z,21.70
2018-01-27T12:52:34.848Z,21.40
2018-01-27T12:53:34.617Z,20.60
2018-01-27T12:54:35.254Z,22.70
2018-01-27T12:55:34.844Z,25.50
2018-01-27T12:56:34.397Z,21.40
2018-01-27T12:57:35.916Z,21.40
2018-01-27T12:58:34.978Z,23.60
2018-01-27T12:59:35.444Z,21.50
2018-01-27T13:00:36.340Z,25.40
2018-01-27T13:01:35.376Z,21.50
2018-01-27T13:02:35.260Z,20.80
2018-01-27T13:03:35.566Z,21.20
2018-01-27T13:04:34.946Z,22.30
2018-01-27T13:05:56.982Z,21.70
2018-01-27T13:06:56.867Z,20.10
2018-01-27T13:07:57.385Z,23.20
2018-01-27T13:08:57.535Z,21.50
2018-01-27T13:09:57.058Z,23.20
2018-01-27T13:10:57.161Z,23.10
2018-01-27T13:11:56.906Z,24.20
2018-01-27T13:13:19.130Z,22.80
2018-01-27T13:14:19.906Z,22.80